Terminal Aerodrome Forecast
Issued by NWS

Home | Current Version | Previous Version | Text Only | Print | Product List | Glossary On
Versions: 1 2 3 4 5 6 7 8 9 10 11 12 13 14 15 16 17 18 19 20 21 22 23 24 25
191
FTUS41 KOKX 261127
TAFHPN
TAF
KHPN 261127Z 2612/2712 06007KT P6SM SCT020 OVC050
     FM261400 09010G19KT P6SM VCSH SCT015 OVC020
     FM262100 09012G20KT 5SM -RA BR SCT005 OVC010
     FM270200 07009KT 3SM -DZ BR SCT004 OVC008
     FM270600 09010KT 1/2SM -DZ FG BKN004 OVC008
      AMD NOT SKED=

USA.gov is the U.S. government's official web portal to all federal, state and local government web resources and services.